Time;durP1;ratioP1;P1;durP2;ratioP2;P2;SDS_P1;SDS_P2;PMS_P1;PMS_P2;Temp;Humidity;BMP_temperature;BMP_pressure;BME280_temperature;BME280_humidity;BME280_pressure;Samples;Min_cycle;Max_cycle;Signal;HPM_P1;HPM_P2
2022/12/19 00:01:25;;;;;;;43.50;15.75;;;;;;;-10.31;79.54;100525.48;1677911;85;25740;-61
2022/12/19 00:04:01;;;;;;;47.75;18.73;;;;;;;-10.34;79.62;100524.41;1678336;85;25508;-62
2022/12/19 00:06:29;;;;;;;42.73;17.77;;;;;;;-10.42;79.96;100525.56;1678332;85;27493;-62
2022/12/19 00:08:59;;;;;;;46.18;16.57;;;;;;;-10.47;80.12;100520.69;1678229;85;25616;-61
2022/12/19 00:11:27;;;;;;;66.25;23.92;;;;;;;-10.54;80.39;100513.73;1678436;85;25450;-61
2022/12/19 00:13:54;;;;;;;53.73;17.50;;;;;;;-10.56;80.31;100508.20;1678385;85;25803;-61
2022/12/19 00:16:24;;;;;;;60.85;22.35;;;;;;;-10.62;80.69;100507.74;1678172;85;25635;-61
2022/12/19 00:18:52;;;;;;;68.17;25.17;;;;;;;-10.66;80.65;100506.84;1678155;85;27590;-62
2022/12/19 00:21:23;;;;;;;49.70;18.80;;;;;;;-10.65;80.44;100509.33;1678116;85;25678;-61
2022/12/19 00:23:50;;;;;;;50.88;16.35;;;;;;;-10.66;80.46;100505.52;1678392;85;25647;-62
2022/12/19 00:26:41;;;;;;;20.85;9.00;;;;;;;-10.69;80.42;100511.06;1678291;85;25849;-62
2022/12/19 00:29:15;;;;;;;48.28;16.55;;;;;;;-10.71;80.46;100511.20;1676805;85;25728;-61
2022/12/19 00:31:49;;;;;;;38.75;14.15;;;;;;;-10.74;80.50;100508.30;1653266;85;28313;-61
2022/12/19 00:34:22;;;;;;;20.75;9.25;;;;;;;-10.72;80.56;100516.12;1653209;86;25664;-61
2022/12/19 00:36:55;;;;;;;63.70;22.15;;;;;;;-10.74;80.37;100515.42;1653440;86;25884;-62
2022/12/19 00:39:25;;;;;;;54.60;18.10;;;;;;;-10.75;80.12;100519.88;1653554;86;25898;-62
2022/12/19 00:42:00;;;;;;;28.83;8.50;;;;;;;-10.78;80.26;100512.18;1653849;86;25714;-62
2022/12/19 00:44:35;;;;;;;59.23;21.80;;;;;;;-10.76;80.34;100510.73;1653280;86;28236;-63
2022/12/19 00:47:01;;;;;;;55.12;22.58;;;;;;;-10.77;80.11;100508.55;1653134;86;25635;-62
2022/12/19 00:49:27;;;;;;;58.45;19.65;;;;;;;-10.79;80.10;100509.19;1653436;86;25487;-61
2022/12/19 00:51:56;;;;;;;68.55;24.70;;;;;;;-10.76;80.07;100506.75;1653380;86;26826;-61
2022/12/19 00:54:22;;;;;;;41.80;15.70;;;;;;;-10.77;79.97;100499.28;1653422;86;25576;-61
2022/12/19 00:56:48;;;;;;;61.20;20.57;;;;;;;-10.79;80.17;100492.44;1653684;86;27382;-61
2022/12/19 00:59:14;;;;;;;37.15;14.58;;;;;;;-10.85;80.11;100490.64;1653144;86;25676;-61
2022/12/19 01:01:41;;;;;;;53.17;18.60;;;;;;;-10.88;80.32;100488.25;1653309;86;25695;-61
2022/12/19 01:04:12;;;;;;;32.33;13.48;;;;;;;-10.88;80.31;100486.11;1653578;86;25898;-61
2022/12/19 01:06:39;;;;;;;53.02;19.77;;;;;;;-10.93;80.54;100479.02;1653558;86;25419;-61
2022/12/19 01:09:05;;;;;;;66.37;24.87;;;;;;;-10.96;80.44;100471.70;1653264;86;27476;-61
2022/12/19 01:14:17;;;;;;;56.23;20.55;;;;;;;-10.96;80.22;100462.91;1653272;86;25497;-61
2022/12/19 01:16:44;;;;;;;34.95;12.35;;;;;;;-10.95;80.13;100469.88;1653512;86;25712;-61
2022/12/19 01:19:10;;;;;;;40.15;16.17;;;;;;;-11.00;80.55;100466.28;1653288;86;25536;-61
2022/12/19 01:21:36;;;;;;;21.57;10.05;;;;;;;-11.04;80.56;100458.25;1653293;86;27489;-61
2022/12/19 01:24:05;;;;;;;58.05;20.10;;;;;;;-11.04;80.59;100465.34;1653537;86;25659;-61
2022/12/19 01:26:32;;;;;;;34.35;12.88;;;;;;;-11.06;80.45;100459.35;1653557;86;25537;-61
2022/12/19 01:28:58;;;;;;;28.55;9.83;;;;;;;-11.10;80.54;100450.34;1653320;86;25790;-62
2022/12/19 01:31:24;;;;;;;60.38;21.55;;;;;;;-11.09;80.50;100453.81;1653392;86;25505;-63
2022/12/19 01:33:51;;;;;;;64.25;20.70;;;;;;;-11.06;80.36;100449.58;1653415;86;27519;-62
2022/12/19 01:36:17;;;;;;;56.92;21.30;;;;;;;-11.06;80.10;100448.26;1653338;86;25644;-62
2022/12/19 01:38:44;;;;;;;72.78;26.70;;;;;;;-11.06;79.91;100444.29;1653389;86;25617;-64
2022/12/19 01:41:11;;;;;;;40.85;17.87;;;;;;;-11.04;79.82;100439.72;1653293;86;25774;-62
2022/12/19 01:43:58;;;;;;;62.83;21.27;;;;;;;-11.00;79.87;100446.93;1653750;86;25470;-62
2022/12/19 01:46:35;;;;;;;57.20;19.60;;;;;;;-11.01;79.82;100451.38;1652959;86;27427;-63
2022/12/19 01:49:04;;;;;;;68.20;23.87;;;;;;;-11.03;79.88;100438.73;1653339;86;27133;-62
2022/12/19 01:51:44;;;;;;;36.65;14.87;;;;;;;-10.99;79.86;100435.36;1653437;86;25692;-62
2022/12/19 01:54:18;;;;;;;50.88;17.73;;;;;;;-11.00;79.83;100437.66;1653711;86;25707;-62
2022/12/19 01:56:50;;;;;;;71.72;22.00;;;;;;;-11.02;79.88;100434.29;1652449;86;25780;-62
2022/12/19 01:59:21;;;;;;;73.02;27.48;;;;;;;-11.03;79.90;100429.47;1653188;86;27454;-62
2022/12/19 02:01:50;;;;;;;69.55;24.27;;;;;;;-11.00;79.90;100422.59;1653714;86;25728;-62
2022/12/19 02:04:17;;;;;;;53.63;21.95;;;;;;;-10.94;79.80;100421.73;1653478;86;25716;-62
2022/12/19 02:06:43;;;;;;;67.85;24.40;;;;;;;-10.88;79.61;100417.24;1653818;86;26446;-63
2022/12/19 02:09:11;;;;;;;62.60;24.12;;;;;;;-10.88;79.59;100414.59;1653334;86;25775;-62
2022/12/19 02:11:38;;;;;;;68.97;25.43;;;;;;;-10.84;79.50;100419.50;1653638;86;27471;-62
2022/12/19 02:14:04;;;;;;;73.57;26.27;;;;;;;-10.80;79.44;100413.95;1653306;86;25747;-62
2022/12/19 02:16:57;;;;;;;64.90;23.60;;;;;;;-10.78;79.31;100411.52;1653396;86;25686;-62
2022/12/19 02:20:02;;;;;;;61.00;24.27;;;;;;;-10.75;79.17;100419.20;1653249;86;25793;-61
2022/12/19 02:22:54;;;;;;;68.15;24.32;;;;;;;-10.71;79.03;100412.66;1653458;86;25691;-62
2022/12/19 02:25:45;;;;;;;72.45;26.87;;;;;;;-10.68;78.94;100410.73;1640209;86;27635;-62
2022/12/19 02:28:48;;;;;;;55.98;20.85;;;;;;;-10.68;78.83;100416.88;1653270;86;25620;-63
2022/12/19 02:31:26;;;;;;;68.42;23.38;;;;;;;-10.69;78.60;100404.59;1667932;85;25493;-62
2022/12/19 02:34:12;;;;;;;66.55;22.27;;;;;;;-10.75;78.58;100394.52;1678328;85;25702;-63
2022/12/19 02:36:56;;;;;;;59.53;23.60;;;;;;;-10.81;78.79;100394.55;1677395;85;25686;-63
2022/12/19 02:39:30;;;;;;;67.17;24.72;;;;;;;-10.82;78.70;100395.53;1677146;85;27349;-63
2022/12/19 02:41:59;;;;;;;63.05;23.40;;;;;;;-10.79;78.78;100395.75;1678357;85;25636;-63
2022/12/19 02:44:42;;;;;;;70.05;25.15;;;;;;;-10.74;78.84;100394.38;1678408;85;25445;-65
2022/12/19 02:47:09;;;;;;;63.58;25.25;;;;;;;-10.74;78.48;100391.73;1678109;85;25748;-63
2022/12/19 02:49:37;;;;;;;58.35;23.65;;;;;;;-10.75;78.33;100384.77;1678061;85;25742;-63
2022/12/19 02:52:14;;;;;;;74.55;24.90;;;;;;;-10.74;78.34;100395.70;1677991;85;27446;-63
2022/12/19 02:54:40;;;;;;;32.48;13.30;;;;;;;-10.71;78.37;100389.33;1674261;85;25502;-63
2022/12/19 02:57:30;;;;;;;29.65;11.75;;;;;;;-10.76;78.21;100389.72;1678013;85;25485;-63
2022/12/19 03:00:10;;;;;;;43.87;15.08;;;;;;;-10.84;78.33;100380.25;1677432;85;25842;-62
2022/12/19 03:03:21;;;;;;;52.43;20.75;;;;;;;-10.94;78.52;100385.51;1678425;85;25611;-62
2022/12/19 03:06:02;;;;;;;64.05;21.87;;;;;;;-10.99;78.48;100379.27;1677940;85;27424;-63
2022/12/19 03:08:55;;;;;;;61.98;22.62;;;;;;;-10.99;78.65;100379.27;1677239;85;33076;-62
2022/12/19 03:11:23;;;;;;;62.55;24.30;;;;;;;-10.94;78.70;100378.04;1676023;85;25509;-62
2022/12/19 03:14:06;;;;;;;59.85;24.47;;;;;;;-10.90;78.64;100373.67;1651055;85;25701;-64
2022/12/19 03:16:36;;;;;;;62.13;24.75;;;;;;;-10.85;78.40;100378.08;1678410;85;25686;-65
2022/12/19 03:19:04;;;;;;;67.92;23.42;;;;;;;-10.80;78.34;100380.84;1678016;85;26815;-63
2022/12/19 03:21:43;;;;;;;66.37;23.62;;;;;;;-10.84;77.99;100369.66;1678143;85;25604;-63
2022/12/19 03:24:12;;;;;;;68.45;23.02;;;;;;;-10.81;78.07;100369.39;1678268;85;25612;-63
2022/12/19 03:26:55;;;;;;;60.23;22.40;;;;;;;-10.82;77.93;100372.17;1678327;85;25910;-62
2022/12/19 03:29:39;;;;;;;60.30;23.42;;;;;;;-10.78;77.98;100372.25;1678015;85;25438;-62
2022/12/19 03:32:09;;;;;;;55.65;20.75;;;;;;;-10.82;77.96;100365.55;1671373;85;27287;-62
2022/12/19 03:34:53;;;;;;;59.63;21.70;;;;;;;-10.90;77.91;100364.88;1669139;85;25744;-62
2022/12/19 03:37:23;;;;;;;51.75;20.15;;;;;;;-10.93;78.17;100365.14;1669683;85;25454;-62
2022/12/19 03:39:57;;;;;;;73.12;24.47;;;;;;;-10.93;78.09;100356.72;1669766;85;25672;-61
2022/12/19 03:45:16;;;;;;;49.88;19.98;;;;;;;-11.02;78.27;100366.30;1669691;85;27486;-62
2022/12/19 03:47:47;;;;;;;57.90;22.20;;;;;;;-11.04;78.34;100360.75;1669671;85;33415;-61
2022/12/19 03:50:15;;;;;;;59.00;23.42;;;;;;;-11.01;78.32;100362.66;1669712;85;25631;-61
2022/12/19 03:53:12;;;;;;;39.55;15.90;;;;;;;-11.07;77.98;100361.86;1669624;85;25772;-62
2022/12/19 03:55:44;;;;;;;52.70;19.95;;;;;;;-11.13;78.35;100355.76;1669816;85;25502;-61
2022/12/19 03:58:15;;;;;;;26.35;10.15;;;;;;;-11.20;78.48;100354.12;1669726;85;27388;-62
2022/12/19 04:00:47;;;;;;;43.17;14.23;;;;;;;-11.20;78.56;100352.81;1669852;85;25442;-62
2022/12/19 04:03:16;;;;;;;61.60;21.55;;;;;;;-11.28;78.63;100357.42;1669676;85;25664;-62
2022/12/19 04:05:45;;;;;;;27.90;12.50;;;;;;;-11.30;78.68;100358.02;1669877;85;25706;-62
2022/12/19 04:08:12;;;;;;;46.65;18.40;;;;;;;-11.36;78.92;100346.63;1669656;85;25726;-62
2022/12/19 04:10:50;;;;;;;45.20;16.07;;;;;;;-11.39;78.89;100342.44;1669663;85;27427;-62
2022/12/19 04:13:21;;;;;;;47.20;17.92;;;;;;;-11.43;78.89;100346.28;1669279;85;25732;-63
2022/12/19 04:16:17;;;;;;;46.20;19.25;;;;;;;-11.47;79.22;100334.28;1669414;85;25610;-62
2022/12/19 04:18:49;;;;;;;38.58;13.62;;;;;;;-11.46;79.10;100335.48;1669651;85;25738;-61
2022/12/19 04:21:20;;;;;;;44.30;12.90;;;;;;;-11.46;79.22;100322.72;1669763;85;25620;-61
2022/12/19 04:23:55;;;;;;;42.35;16.35;;;;;;;-11.52;79.43;100318.80;1669867;85;28034;-61
2022/12/19 04:26:23;;;;;;;59.05;22.45;;;;;;;-11.55;79.29;100308.47;1669741;85;25805;-61
2022/12/19 04:28:57;;;;;;;61.00;22.35;;;;;;;-11.56;79.28;100312.09;1669886;85;25671;-61
2022/12/19 04:31:23;;;;;;;26.23;10.08;;;;;;;-11.49;79.20;100315.08;1669755;85;25690;-62
2022/12/19 04:33:49;;;;;;;27.62;10.85;;;;;;;-11.49;79.31;100319.86;1670037;85;25659;-61
2022/12/19 04:36:16;;;;;;;33.38;12.45;;;;;;;-11.51;79.22;100317.85;1669593;85;27540;-62
2022/12/19 04:38:42;;;;;;;52.05;19.07;;;;;;;-11.55;79.45;100316.91;1669912;85;25438;-61
2022/12/19 04:41:09;;;;;;;54.90;19.07;;;;;;;-11.56;79.28;100311.24;1669999;85;25505;-62
2022/12/19 04:43:35;;;;;;;61.05;22.62;;;;;;;-11.57;79.27;100314.39;1669556;85;25860;-61
2022/12/19 04:46:01;;;;;;;51.15;21.68;;;;;;;-11.53;79.25;100307.87;1669785;85;25651;-62
2022/12/19 04:48:27;;;;;;;50.15;18.67;;;;;;;-11.47;79.08;100315.30;1669605;85;27419;-61
2022/12/19 04:50:55;;;;;;;59.95;22.82;;;;;;;-11.48;78.79;100317.59;1669529;86;25723;-60
2022/12/19 04:53:21;;;;;;;72.58;24.95;;;;;;;-11.42;78.90;100308.77;1669661;85;25450;-61
2022/12/19 04:55:47;;;;;;;60.73;24.95;;;;;;;-11.36;78.70;100306.93;1669936;85;25839;-62
2022/12/19 04:58:14;;;;;;;59.00;22.70;;;;;;;-11.30;78.45;100301.59;1669776;86;25617;-61
2022/12/19 05:00:48;;;;;;;66.65;21.07;;;;;;;-11.27;78.41;100308.80;1669585;86;27526;-61
2022/12/19 05:03:15;;;;;;;63.23;22.67;;;;;;;-11.25;78.19;100321.43;1669947;85;25666;-61
2022/12/19 05:05:41;;;;;;;61.80;21.20;;;;;;;-11.22;78.20;100314.55;1669907;85;25683;-61
2022/12/19 05:08:08;;;;;;;72.30;25.62;;;;;;;-11.26;77.81;100310.97;1669714;85;25777;-60
2022/12/19 05:10:36;;;;;;;65.80;25.97;;;;;;;-11.26;78.00;100317.59;1670106;85;25793;-61
2022/12/19 05:13:02;;;;;;;50.05;19.55;;;;;;;-11.26;77.97;100317.09;1669798;85;27465;-62
2022/12/19 05:15:29;;;;;;;79.12;26.25;;;;;;;-11.25;77.92;100315.28;1669983;85;25766;-61
2022/12/19 05:17:56;;;;;;;82.62;25.97;;;;;;;-11.26;77.89;100307.00;1669736;85;25486;-60
2022/12/19 05:20:23;;;;;;;76.02;26.12;;;;;;;-11.29;77.60;100301.46;1669699;85;25742;-60
2022/12/19 05:22:49;;;;;;;56.90;22.62;;;;;;;-11.27;77.77;100305.30;1669776;85;25481;-61
2022/12/19 05:25:16;;;;;;;62.08;23.45;;;;;;;-11.26;77.80;100310.47;1669733;85;27384;-61
2022/12/19 05:27:42;;;;;;;74.85;24.85;;;;;;;-11.23;77.89;100319.47;1669661;85;25446;-61
2022/12/19 05:30:10;;;;;;;58.60;22.58;;;;;;;-11.16;77.82;100324.25;1669771;85;25700;-61
2022/12/19 05:32:36;;;;;;;54.00;21.33;;;;;;;-11.19;77.37;100324.03;1669766;85;25867;-61
2022/12/19 05:35:04;;;;;;;63.68;21.82;;;;;;;-11.18;77.47;100324.85;1669779;85;25721;-62
2022/12/19 05:37:30;;;;;;;67.03;23.02;;;;;;;-11.16;77.47;100325.57;1669706;85;27478;-61
2022/12/19 05:39:57;;;;;;;58.52;22.10;;;;;;;-11.11;77.53;100322.88;1669671;85;27208;-60
2022/12/19 05:42:25;;;;;;;70.20;23.52;;;;;;;-11.08;77.16;100307.23;1669806;85;25584;-62
2022/12/19 05:44:51;;;;;;;57.33;23.32;;;;;;;-11.10;77.15;100315.31;1669932;85;25957;-61
2022/12/19 05:47:19;;;;;;;61.95;23.20;;;;;;;-11.13;76.98;100314.25;1669746;85;25497;-61
2022/12/19 05:49:46;;;;;;;75.00;25.20;;;;;;;-11.09;77.01;100310.84;1670093;85;27410;-61
2022/12/19 05:52:12;;;;;;;62.85;23.47;;;;;;;-11.07;77.21;100311.55;1669778;85;25769;-61
2022/12/19 05:54:39;;;;;;;66.53;24.65;;;;;;;-11.06;76.83;100299.98;1670053;85;25647;-60
2022/12/19 05:57:05;;;;;;;70.87;24.52;;;;;;;-11.06;76.63;100302.63;1669736;85;25720;-60
2022/12/19 05:59:32;;;;;;;79.37;26.40;;;;;;;-11.07;76.37;100308.06;1669739;85;25435;-62
2022/12/19 06:01:58;;;;;;;66.57;23.92;;;;;;;-11.10;76.50;100302.55;1669744;85;27481;-61
2022/12/19 06:04:25;;;;;;;58.30;22.35;;;;;;;-11.08;76.63;100301.94;1669622;85;25730;-62
2022/12/19 06:06:51;;;;;;;58.17;22.07;;;;;;;-11.03;76.49;100298.39;1669903;85;25716;-63
2022/12/19 06:09:18;;;;;;;54.10;22.37;;;;;;;-11.11;76.25;100303.02;1669721;85;25826;-62
2022/12/19 06:11:44;;;;;;;62.53;22.73;;;;;;;-11.14;76.10;100303.28;1669773;85;25530;-61
2022/12/19 06:14:11;;;;;;;54.73;22.30;;;;;;;-11.15;76.42;100302.09;1669704;85;27362;-62
2022/12/19 06:16:37;;;;;;;61.02;22.50;;;;;;;-11.16;76.35;100298.63;1669754;85;25719;-61
2022/12/19 06:19:03;;;;;;;64.58;25.55;;;;;;;-11.14;76.53;100302.47;1669718;85;25697;-61
2022/12/19 06:21:30;;;;;;;70.47;25.12;;;;;;;-11.12;76.33;100307.12;1669593;85;25761;-61
2022/12/19 06:23:56;;;;;;;66.53;25.60;;;;;;;-11.19;75.80;100310.80;1669987;85;25730;-62
2022/12/19 06:26:23;;;;;;;57.20;23.20;;;;;;;-11.32;75.78;100299.08;1669720;85;27489;-61
2022/12/19 06:28:51;;;;;;;80.83;28.77;;;;;;;-11.37;76.00;100306.58;1669607;85;25695;-62
2022/12/19 06:31:20;;;;;;;67.47;24.55;;;;;;;-11.39;75.96;100303.22;1669896;85;25644;-62
2022/12/19 06:33:47;;;;;;;58.45;23.35;;;;;;;-11.48;75.94;100299.55;1669720;85;25794;-62
2022/12/19 06:36:27;;;;;;;77.65;28.55;;;;;;;-11.54;76.26;100292.13;1669815;85;25604;-62
2022/12/19 06:38:58;;;;;;;78.30;27.42;;;;;;;-11.51;76.54;100294.51;1668584;85;29548;-61
2022/12/19 06:44:13;;;;;;;71.35;27.05;;;;;;;-11.67;76.03;100289.65;1669751;85;25609;-61
2022/12/19 06:46:41;;;;;;;73.80;27.58;;;;;;;-11.64;76.59;100286.27;1669960;85;25785;-62
2022/12/19 06:49:08;;;;;;;72.25;25.00;;;;;;;-11.64;76.38;100284.10;1669646;85;25675;-62
2022/12/19 06:51:34;;;;;;;71.35;28.55;;;;;;;-11.64;76.59;100281.45;1670009;85;27437;-61
2022/12/19 06:54:00;;;;;;;96.22;32.93;;;;;;;-11.57;76.76;100283.97;1670308;85;25884;-61
2022/12/19 06:56:27;;;;;;;76.40;29.12;;;;;;;-11.54;76.37;100283.71;1670180;85;25667;-62
2022/12/19 06:58:53;;;;;;;77.72;28.55;;;;;;;-11.55;76.37;100276.72;1669677;85;25732;-61
2022/12/19 07:01:43;;;;;;;94.60;32.98;;;;;;;-11.55;76.19;100280.69;1669806;85;25680;-63
2022/12/19 07:04:14;;;;;;;75.03;29.80;;;;;;;-11.52;76.52;100278.29;1669634;85;29606;-62
2022/12/19 07:06:40;;;;;;;85.87;29.98;;;;;;;-11.38;76.76;100277.95;1670225;85;25647;-61
2022/12/19 07:09:06;;;;;;;79.97;27.37;;;;;;;-11.37;76.04;100280.94;1669713;85;25672;-61
2022/12/19 07:11:33;;;;;;;73.28;26.30;;;;;;;-11.39;76.12;100274.95;1669750;85;26730;-61
2022/12/19 07:13:59;;;;;;;69.07;26.93;;;;;;;-11.43;75.86;100284.10;1669731;85;25746;-61
2022/12/19 07:16:27;;;;;;;76.87;27.80;;;;;;;-11.43;76.14;100292.55;1669691;85;27497;-61
2022/12/19 07:18:54;;;;;;;79.10;27.10;;;;;;;-11.36;76.50;100287.08;1669904;85;25749;-61
2022/12/19 07:21:21;;;;;;;74.67;24.25;;;;;;;-11.29;76.40;100276.31;1669644;85;25564;-61
2022/12/19 07:23:48;;;;;;;74.97;27.50;;;;;;;-11.26;76.25;100278.70;1669720;85;25778;-61
2022/12/19 07:26:14;;;;;;;77.60;27.65;;;;;;;-11.15;76.57;100283.56;1669843;85;25680;-61
2022/12/19 07:28:43;;;;;;;73.42;29.40;;;;;;;-10.93;76.72;100280.39;1669658;85;27528;-62
2022/12/19 07:31:09;;;;;;;74.12;27.40;;;;;;;-10.80;76.09;100283.65;1669725;85;25604;-62
2022/12/19 07:33:36;;;;;;;65.15;26.50;;;;;;;-10.65;75.44;100287.27;1669623;85;25431;-62
2022/12/19 07:36:02;;;;;;;80.07;28.75;;;;;;;-10.55;75.07;100293.43;1669625;85;26336;-61
2022/12/19 07:38:28;;;;;;;88.92;32.13;;;;;;;-10.50;74.87;100289.05;1670131;85;25423;-62
2022/12/19 07:40:55;;;;;;;106.05;40.83;;;;;;;-10.42;75.25;100281.72;1669615;85;27497;-62
2022/12/19 07:43:21;;;;;;;82.47;31.02;;;;;;;-10.34;75.36;100274.75;1669588;85;25657;-62
2022/12/19 07:45:54;;;;;;;80.57;29.63;;;;;;;-10.24;75.28;100277.44;1669708;85;25706;-62
2022/12/19 07:48:20;;;;;;;102.65;42.95;;;;;;;-10.20;75.23;100272.20;1669994;85;25866;-62
2022/12/19 07:50:47;;;;;;;86.67;36.88;;;;;;;-10.17;74.74;100283.00;1669693;85;25714;-62
2022/12/19 07:53:15;;;;;;;79.92;30.50;;;;;;;-10.20;74.88;100282.80;1669692;85;27606;-61
2022/12/19 07:55:42;;;;;;;66.53;26.33;;;;;;;-10.14;75.20;100280.59;1669752;85;25526;-62
2022/12/19 07:58:09;;;;;;;64.60;24.05;;;;;;;-10.13;74.71;100271.64;1669674;85;25508;-62
2022/12/19 08:00:36;;;;;;;51.42;22.48;;;;;;;-10.12;74.82;100274.16;1669707;85;25792;-62
2022/12/19 08:03:03;;;;;;;60.38;23.45;;;;;;;-10.15;74.57;100285.52;1669973;85;25467;-61
2022/12/19 08:05:29;;;;;;;67.58;23.60;;;;;;;-10.21;74.52;100292.22;1669763;85;27376;-61
2022/12/19 08:07:56;;;;;;;61.58;23.05;;;;;;;-10.16;75.15;100290.00;1669897;85;25677;-61
2022/12/19 08:10:22;;;;;;;58.38;23.50;;;;;;;-10.01;75.62;100296.22;1669934;85;25655;-61
2022/12/19 08:12:48;;;;;;;85.32;31.07;;;;;;;-9.85;75.51;100299.16;1669909;85;25940;-61
2022/12/19 08:15:15;;;;;;;66.05;25.75;;;;;;;-9.66;75.27;100286.02;1669685;85;25427;-61
2022/12/19 08:17:42;;;;;;;71.77;27.32;;;;;;;-9.58;74.59;100290.96;1670068;85;27087;-61
2022/12/19 08:20:10;;;;;;;83.90;30.40;;;;;;;-9.39;75.52;100286.61;1669567;85;25715;-61
2022/12/19 08:22:36;;;;;;;95.32;30.17;;;;;;;-9.04;75.74;100281.63;1669984;85;25474;-61
2022/12/19 08:25:06;;;;;;;81.67;29.07;;;;;;;-8.63;75.64;100268.53;1669603;85;25825;-61
2022/12/19 08:27:33;;;;;;;75.42;28.05;;;;;;;-8.36;74.67;100262.81;1669961;85;25681;-62
2022/12/19 08:30:00;;;;;;;76.53;30.32;;;;;;;-8.14;74.68;100281.52;1669930;85;27445;-61
2022/12/19 08:32:30;;;;;;;87.72;30.32;;;;;;;-7.82;74.95;100280.64;1669423;85;25442;-61
2022/12/19 08:34:56;;;;;;;67.35;26.97;;;;;;;-7.67;74.49;100252.98;1669634;85;25514;-61
2022/12/19 08:37:22;;;;;;;76.00;27.52;;;;;;;-7.46;73.24;100257.95;1669552;85;25831;-61
2022/12/19 08:39:49;;;;;;;78.02;31.48;;;;;;;-7.36;73.01;100249.88;1670040;85;25495;-61
2022/12/19 08:42:15;;;;;;;79.85;30.15;;;;;;;-7.31;72.69;100250.74;1669638;85;28483;-62
2022/12/19 08:44:41;;;;;;;74.35;29.25;;;;;;;-7.11;72.35;100248.67;1669578;85;25778;-61
2022/12/19 08:47:09;;;;;;;96.28;34.60;;;;;;;-6.89;71.63;100254.94;1669589;85;25702;-61
2022/12/19 08:49:35;;;;;;;107.52;36.60;;;;;;;-6.65;72.35;100257.40;1669592;85;25815;-61
2022/12/19 08:52:02;;;;;;;84.55;33.83;;;;;;;-6.52;71.79;100264.93;1670110;85;25679;-61
2022/12/19 08:54:28;;;;;;;86.22;32.75;;;;;;;-6.46;71.17;100254.45;1669649;85;27410;-62
2022/12/19 08:56:54;;;;;;;90.72;35.38;;;;;;;-6.43;70.52;100254.14;1669856;85;26293;-62
2022/12/19 08:59:23;;;;;;;108.95;37.53;;;;;;;-6.49;70.21;100252.61;1669632;86;25649;-61
2022/12/19 09:01:49;;;;;;;92.72;36.38;;;;;;;-6.43;70.91;100248.80;1669846;85;25799;-59
2022/12/19 09:04:16;;;;;;;92.33;36.65;;;;;;;-6.45;70.25;100234.78;1670547;85;25785;-61
2022/12/19 09:06:42;;;;;;;89.92;35.05;;;;;;;-6.44;70.62;100226.29;1671669;85;27445;-61
2022/12/19 09:09:09;;;;;;;87.90;37.73;;;;;;;-6.46;69.85;100234.45;1671592;85;25715;-62
2022/12/19 09:11:36;;;;;;;145.17;52.65;;;;;;;-6.46;70.67;100234.94;1642280;85;26549;-62
2022/12/19 09:14:03;;;;;;;167.00;67.72;;;;;;;-6.42;70.09;100249.65;1660338;85;25835;-62
2022/12/19 09:16:30;;;;;;;168.68;65.05;;;;;;;-6.43;70.54;100243.95;1670979;85;25693;-62
2022/12/19 09:18:57;;;;;;;230.15;93.80;;;;;;;-6.32;70.10;100238.81;1671028;85;27514;-62
2022/12/19 09:21:27;;;;;;;118.75;47.95;;;;;;;-6.27;70.65;100238.33;1670689;85;25516;-63
2022/12/19 09:23:58;;;;;;;95.77;38.40;;;;;;;-6.19;70.34;100239.69;1671333;85;25749;-62
2022/12/19 09:26:26;;;;;;;102.15;42.38;;;;;;;-5.99;70.33;100236.16;1671316;85;25842;-61
2022/12/19 09:28:53;;;;;;;107.03;41.48;;;;;;;-5.93;69.79;100222.67;1671257;85;25676;-63
2022/12/19 09:31:23;;;;;;;97.47;35.70;;;;;;;-5.77;69.65;100220.48;1671021;85;27415;-63
2022/12/19 09:33:50;;;;;;;112.37;41.90;;;;;;;-5.48;69.22;100231.64;1669077;85;25684;-65
2022/12/19 09:36:24;;;;;;;113.00;41.95;;;;;;;-5.23;69.45;100228.44;1643287;86;25750;-59
2022/12/19 09:38:53;;;;;;;130.43;47.90;;;;;;;-5.07;68.21;100228.08;1668418;85;26297;-62
2022/12/19 09:41:39;;;;;;;106.12;42.55;;;;;;;-4.91;69.21;100223.16;1657231;86;25621;-62
2022/12/19 09:44:17;;;;;;;113.22;41.25;;;;;;;-4.74;67.55;100215.91;1668099;86;28535;-59
2022/12/19 09:47:00;;;;;;;97.30;34.95;;;;;;;-4.61;67.80;100208.64;1634408;87;25800;-60
2022/12/19 09:49:32;;;;;;;105.07;39.65;;;;;;;-4.76;66.13;100201.02;1660673;86;25493;-62
2022/12/19 09:52:15;;;;;;;105.70;40.88;;;;;;;-4.73;66.51;100196.66;1659695;86;25786;-62
2022/12/19 09:54:53;;;;;;;101.07;40.63;;;;;;;-4.52;67.82;100197.38;1661324;86;25679;-62
2022/12/19 09:57:40;;;;;;;109.07;42.30;;;;;;;-4.24;67.25;100193.37;1656237;86;28045;-62
2022/12/19 10:00:14;;;;;;;111.35;40.63;;;;;;;-3.93;68.15;100184.44;1659938;86;25684;-62
2022/12/19 10:02:55;;;;;;;102.82;41.63;;;;;;;-3.63;67.47;100181.02;1661576;86;25807;-62
2022/12/19 10:05:41;;;;;;;116.08;42.85;;;;;;;-3.40;66.83;100177.75;1661254;86;25744;-64
2022/12/19 10:08:32;;;;;;;105.97;42.43;;;;;;;-3.25;66.09;100172.08;1661303;86;25767;-64
2022/12/19 10:11:09;;;;;;;101.02;41.35;;;;;;;-2.98;66.02;100184.00;1661767;86;28116;-62
2022/12/19 10:13:43;;;;;;;95.17;38.25;;;;;;;-2.73;64.19;100178.83;1661421;86;25566;-61
2022/12/19 10:16:42;;;;;;;93.10;38.17;;;;;;;-2.37;65.98;100175.80;1661780;86;25594;-60
2022/12/19 10:19:16;;;;;;;86.45;38.10;;;;;;;-1.94;64.82;100168.27;1660285;86;25702;-60
2022/12/19 10:22:06;;;;;;;94.40;39.50;;;;;;;-1.13;66.23;100160.75;1661322;86;25685;-58
2022/12/19 10:25:13;;;;;;;88.62;38.40;;;;;;;-0.43;64.83;100163.81;1676266;85;27434;-61
2022/12/19 10:27:55;;;;;;;95.12;39.80;;;;;;;0.08;62.62;100152.69;1683793;85;25614;-58
2022/12/19 10:30:23;;;;;;;96.30;42.03;;;;;;;0.65;63.66;100131.16;1685657;84;25431;-58
2022/12/19 10:33:19;;;;;;;99.37;43.35;;;;;;;1.14;61.75;100130.27;1642722;86;25956;-58
2022/12/19 10:35:48;;;;;;;89.90;42.43;;;;;;;1.40;59.78;100135.75;1667275;86;25744;-57
2022/12/19 10:38:31;;;;;;;112.55;48.90;;;;;;;1.41;61.43;100135.53;1667003;86;28410;-58
2022/12/19 10:41:24;;;;;;;101.62;45.05;;;;;;;1.46;59.57;100140.28;1666929;86;25681;-59
2022/12/19 10:44:08;;;;;;;99.52;43.98;;;;;;;1.81;61.21;100116.89;1667048;86;25749;-58
2022/12/19 10:46:45;;;;;;;114.37;49.88;;;;;;;1.82;58.03;100117.72;1667166;86;25821;-59
2022/12/19 10:49:27;;;;;;;101.30;46.40;;;;;;;1.55;59.20;100123.32;1666974;86;25658;-59
2022/12/19 10:52:02;;;;;;;99.65;45.48;;;;;;;1.93;60.07;100112.13;1667282;85;27627;-60
2022/12/19 10:54:42;;;;;;;105.22;47.83;;;;;;;2.31;60.50;100113.89;1666997;86;25488;-61
2022/12/19 10:57:25;;;;;;;154.03;61.73;;;;;;;2.78;59.40;100119.84;1667264;86;25487;-62
2022/12/19 11:00:16;;;;;;;103.07;49.45;;;;;;;3.31;58.53;100100.75;1667325;86;25839;-62
2022/12/19 11:02:54;;;;;;;107.45;47.95;;;;;;;3.73;59.85;100092.34;1667576;86;25732;-63
2022/12/19 11:05:40;;;;;;;103.72;48.20;;;;;;;4.42;59.50;100086.08;1667040;86;25899;-64
2022/12/19 11:08:12;;;;;;;102.50;47.58;;;;;;;4.98;57.39;100083.72;1666797;86;25457;-64
2022/12/19 11:10:49;;;;;;;122.10;53.35;;;;;;;5.46;57.99;100093.58;1666806;86;25510;-67
2022/12/19 11:13:28;;;;;;;104.87;48.60;;;;;;;5.81;56.11;100081.67;1667188;86;25787;-67
2022/12/19 11:15:58;;;;;;;101.97;48.08;;;;;;;6.11;56.60;100088.73;1667254;85;25640;-65
2022/12/19 11:18:34;;;;;;;101.60;49.90;;;;;;;6.22;55.21;100087.52;1667333;86;27538;-65
2022/12/19 11:21:17;;;;;;;97.82;47.78;;;;;;;6.44;56.57;100082.64;1667074;86;25432;-65
2022/12/19 11:23:58;;;;;;;91.87;47.00;;;;;;;6.68;56.09;100071.54;1667351;86;25781;-66
2022/12/19 11:26:49;;;;;;;107.32;50.85;;;;;;;6.85;55.01;100072.84;1664829;86;25715;-69
2022/12/19 11:29:47;;;;;;;93.45;48.98;;;;;;;6.97;55.55;100061.25;1666966;86;25643;-69
2022/12/19 11:32:33;;;;;;;109.97;52.43;;;;;;;7.25;55.09;100059.91;1667243;86;27585;-71
2022/12/19 11:35:20;;;;;;;107.30;54.15;;;;;;;7.19;53.93;100065.86;1667994;85;25687;-67